Time;durP1;ratioP1;P1;durP2;ratioP2;P2;SDS_P1;SDS_P2;PMS_P1;PMS_P2;Temp;Humidity;BMP_temperature;BMP_pressure;BME280_temperature;BME280_humidity;BME280_pressure;Samples;Min_cycle;Max_cycle;Signal;HPM_P1;HPM_P2
2021/05/25 00:01:18;;;;;;;5.32;3.00;;;;;;;;;;5024411;28;20080;-72
2021/05/25 00:03:44;;;;;;;7.25;3.30;;;;;;;;;;5023734;28;20072;-72
2021/05/25 00:06:11;;;;;;;6.88;3.65;;;;;;;;;;5024131;28;20045;-72
2021/05/25 00:08:39;;;;;;;5.28;3.53;;;;;;;;;;5022471;28;20504;-72
2021/05/25 00:11:05;;;;;;;8.15;4.18;;;;;;;;;;5022916;28;20116;-72
2021/05/25 00:13:31;;;;;;;6.75;3.65;;;;;;;;;;5022387;28;20041;-72
2021/05/25 00:15:58;;;;;;;7.65;3.88;;;;;;;;;;5021129;28;20045;-72
2021/05/25 00:18:24;;;;;;;8.27;3.78;;;;;;;;;;5001655;28;20061;-72
2021/05/25 00:20:50;;;;;;;8.13;4.88;;;;;;;;;;5017265;28;20457;-72
2021/05/25 00:23:17;;;;;;;7.28;5.15;;;;;;;;;;5018231;28;20041;-72
2021/05/25 00:25:43;;;;;;;9.00;5.35;;;;;;;;;;5021111;28;20069;-72
2021/05/25 00:28:10;;;;;;;7.25;5.07;;;;;;;;;;5022467;28;20436;-72
2021/05/25 00:30:36;;;;;;;10.65;6.20;;;;;;;;;;5021210;28;20407;-72
2021/05/25 00:33:03;;;;;;;7.90;5.50;;;;;;;;;;5021121;28;20110;-72
2021/05/25 00:35:34;;;;;;;11.32;6.13;;;;;;;;;;5020500;28;20075;-72
2021/05/25 00:38:00;;;;;;;8.52;6.18;;;;;;;;;;5018447;28;20045;-72
2021/05/25 00:40:26;;;;;;;9.27;6.20;;;;;;;;;;5021997;28;20037;-72
2021/05/25 00:42:53;;;;;;;12.30;7.78;;;;;;;;;;5020229;28;20573;-72
2021/05/25 00:45:19;;;;;;;13.30;8.27;;;;;;;;;;5022111;28;20057;-72
2021/05/25 00:47:46;;;;;;;15.68;8.75;;;;;;;;;;5018654;28;20183;-72
2021/05/25 00:50:14;;;;;;;14.63;8.50;;;;;;;;;;5028297;28;20083;-72
2021/05/25 00:52:42;;;;;;;11.30;8.70;;;;;;;;;;5021999;28;20038;-72
2021/05/25 00:55:09;;;;;;;14.35;8.52;;;;;;;;;;5023013;28;20139;-72
2021/05/25 00:57:36;;;;;;;15.10;9.30;;;;;;;;;;5026633;28;20507;-72
2021/05/25 01:00:05;;;;;;;14.00;9.70;;;;;;;;;;5025420;28;20037;-72
2021/05/25 01:02:31;;;;;;;16.23;10.32;;;;;;;;;;5028745;28;20119;-72
2021/05/25 01:04:57;;;;;;;14.68;10.27;;;;;;;;;;5026848;28;20046;-71
2021/05/25 01:07:24;;;;;;;14.18;11.02;;;;;;;;;;5026978;28;20038;-72
2021/05/25 01:09:52;;;;;;;17.85;11.88;;;;;;;;;;5005048;28;20119;-72
2021/05/25 01:12:18;;;;;;;17.52;11.57;;;;;;;;;;5025300;28;20453;-72
2021/05/25 01:14:51;;;;;;;11.40;8.02;;;;;;;;;;5026081;28;20038;-72
2021/05/25 01:17:17;;;;;;;5.75;3.20;;;;;;;;;;5021212;28;20057;-72
2021/05/25 01:19:43;;;;;;;5.93;1.92;;;;;;;;;;5020201;28;20105;-72
2021/05/25 01:22:09;;;;;;;4.82;2.05;;;;;;;;;;5003724;28;20450;-73
2021/05/25 01:24:36;;;;;;;4.15;1.60;;;;;;;;;;5027150;28;20120;-72
2021/05/25 01:27:04;;;;;;;7.80;1.60;;;;;;;;;;5024428;28;20465;-72
2021/05/25 01:29:31;;;;;;;5.38;1.30;;;;;;;;;;5025729;28;20153;-72
2021/05/25 01:31:57;;;;;;;5.13;1.67;;;;;;;;;;5026002;28;20044;-72
2021/05/25 01:34:24;;;;;;;11.07;1.75;;;;;;;;;;5021659;28;20727;-72
2021/05/25 01:36:50;;;;;;;13.65;2.47;;;;;;;;;;5026776;28;20049;-72
2021/05/25 01:39:17;;;;;;;7.65;1.50;;;;;;;;;;5005225;28;20073;-72
2021/05/25 01:41:43;;;;;;;12.18;2.00;;;;;;;;;;5027887;28;20049;-72
2021/05/25 01:44:10;;;;;;;4.88;1.48;;;;;;;;;;5027604;28;20041;-71
2021/05/25 01:46:36;;;;;;;5.90;1.30;;;;;;;;;;5024047;28;20824;-72
2021/05/25 01:49:03;;;;;;;6.07;2.03;;;;;;;;;;5010739;28;20046;-72
2021/05/25 01:51:29;;;;;;;9.65;1.70;;;;;;;;;;5024533;28;20129;-71
2021/05/25 01:53:56;;;;;;;6.75;1.83;;;;;;;;;;5009915;28;20072;-72
2021/05/25 01:56:22;;;;;;;3.45;1.10;;;;;;;;;;5023626;28;20041;-72
2021/05/25 01:58:48;;;;;;;9.02;1.60;;;;;;;;;;5025714;28;20049;-72
2021/05/25 02:01:15;;;;;;;6.85;1.73;;;;;;;;;;5022260;28;20098;-72
2021/05/25 02:03:42;;;;;;;9.20;1.50;;;;;;;;;;5024993;28;20140;-71
2021/05/25 02:06:09;;;;;;;8.10;1.58;;;;;;;;;;5023832;28;20745;-72
2021/05/25 02:08:36;;;;;;;5.55;1.40;;;;;;;;;;5025631;28;20049;-72
2021/05/25 02:11:03;;;;;;;6.90;1.50;;;;;;;;;;5025610;28;20034;-72
2021/05/25 02:13:30;;;;;;;5.03;1.45;;;;;;;;;;5023956;28;20073;-72
2021/05/25 02:15:59;;;;;;;8.00;2.00;;;;;;;;;;5021012;28;20049;-72
2021/05/25 02:18:28;;;;;;;7.93;1.23;;;;;;;;;;5020261;28;20114;-72
2021/05/25 02:20:55;;;;;;;7.28;1.75;;;;;;;;;;5017410;28;20123;-71
2021/05/25 02:23:21;;;;;;;6.30;1.95;;;;;;;;;;5018539;28;20140;-72
2021/05/25 02:25:48;;;;;;;7.07;1.63;;;;;;;;;;5023360;28;20551;-72
2021/05/25 02:28:15;;;;;;;9.60;1.38;;;;;;;;;;5026349;28;20048;-72
2021/05/25 02:30:41;;;;;;;4.57;1.25;;;;;;;;;;5021411;28;20183;-72
2021/05/25 02:33:09;;;;;;;7.82;1.40;;;;;;;;;;5020529;28;20045;-72
2021/05/25 02:35:36;;;;;;;9.73;1.80;;;;;;;;;;5026196;28;20048;-72
2021/05/25 02:38:03;;;;;;;7.00;1.10;;;;;;;;;;5026206;28;20049;-72
2021/05/25 02:40:30;;;;;;;8.10;2.00;;;;;;;;;;5022637;28;20103;-72
2021/05/25 02:42:57;;;;;;;7.72;1.33;;;;;;;;;;5025109;28;20045;-72
2021/05/25 02:45:23;;;;;;;7.03;1.27;;;;;;;;;;5020953;28;20033;-72
2021/05/25 02:47:49;;;;;;;7.15;1.42;;;;;;;;;;5025962;28;20042;-72
2021/05/25 02:50:16;;;;;;;6.25;1.50;;;;;;;;;;5023524;28;20092;-72
2021/05/25 02:52:44;;;;;;;8.27;1.88;;;;;;;;;;5023203;28;20049;-72
2021/05/25 02:55:11;;;;;;;5.65;1.25;;;;;;;;;;5026276;28;20120;-72
2021/05/25 02:57:38;;;;;;;12.50;1.92;;;;;;;;;;5024125;28;20462;-72
2021/05/25 03:00:05;;;;;;;7.95;2.00;;;;;;;;;;5027016;28;20046;-72
2021/05/25 03:02:32;;;;;;;6.45;1.60;;;;;;;;;;5023238;28;20046;-72
2021/05/25 03:04:58;;;;;;;9.48;1.60;;;;;;;;;;5023813;28;20041;-72
2021/05/25 03:07:24;;;;;;;9.70;1.45;;;;;;;;;;5026995;28;20041;-71
2021/05/25 03:09:50;;;;;;;9.73;1.65;;;;;;;;;;5026274;28;20053;-72
2021/05/25 03:12:17;;;;;;;10.95;1.92;;;;;;;;;;5023054;28;20069;-71
2021/05/25 03:14:43;;;;;;;14.13;3.08;;;;;;;;;;5023422;28;20045;-72
2021/05/25 03:17:09;;;;;;;5.30;1.70;;;;;;;;;;5023673;28;20151;-72
2021/05/25 03:19:35;;;;;;;5.68;1.58;;;;;;;;;;5020996;28;20274;-72
2021/05/25 03:22:02;;;;;;;9.52;2.20;;;;;;;;;;5017855;28;20037;-72
2021/05/25 03:24:28;;;;;;;5.55;1.92;;;;;;;;;;5021240;28;20924;-72
2021/05/25 03:26:55;;;;;;;8.73;1.40;;;;;;;;;;5023724;28;20142;-72
2021/05/25 03:29:21;;;;;;;6.53;1.90;;;;;;;;;;5025068;28;20041;-72
2021/05/25 03:31:47;;;;;;;10.07;1.40;;;;;;;;;;5022764;28;20050;-72
2021/05/25 03:34:13;;;;;;;2.80;1.20;;;;;;;;;;5025399;28;20040;-72
2021/05/25 03:36:40;;;;;;;5.18;1.30;;;;;;;;;;5025005;28;20061;-72
2021/05/25 03:39:06;;;;;;;4.00;1.10;;;;;;;;;;5025506;28;20448;-72
2021/05/25 03:41:33;;;;;;;6.30;1.38;;;;;;;;;;5025439;28;20107;-72
2021/05/25 03:44:01;;;;;;;3.90;1.15;;;;;;;;;;5025663;28;20089;-72
2021/05/25 03:46:27;;;;;;;6.57;1.20;;;;;;;;;;5026080;28;20371;-72
2021/05/25 03:48:54;;;;;;;7.80;1.15;;;;;;;;;;5025961;28;20045;-72
2021/05/25 03:51:20;;;;;;;7.53;1.77;;;;;;;;;;5021626;28;20044;-72
2021/05/25 03:53:47;;;;;;;8.50;1.40;;;;;;;;;;5021350;28;20053;-71
2021/05/25 03:58:48;;;;;;;4.78;1.15;;;;;;;;;;5024998;28;20033;-73
2021/05/25 04:01:16;;;;;;;3.60;0.88;;;;;;;;;;5025256;28;20476;-72
2021/05/25 04:03:42;;;;;;;6.18;1.17;;;;;;;;;;5009286;28;20103;-72
2021/05/25 04:06:09;;;;;;;4.78;1.00;;;;;;;;;;5022224;28;20100;-72
2021/05/25 04:08:35;;;;;;;7.95;1.75;;;;;;;;;;5022814;28;20047;-71
2021/05/25 04:11:01;;;;;;;6.25;1.75;;;;;;;;;;5024136;28;20370;-72
2021/05/25 04:13:27;;;;;;;7.00;1.30;;;;;;;;;;5024116;28;20064;-71
2021/05/25 04:15:55;;;;;;;7.43;1.58;;;;;;;;;;5023148;28;20046;-72
2021/05/25 04:18:21;;;;;;;6.80;1.08;;;;;;;;;;5016363;28;20049;-73
2021/05/25 04:20:48;;;;;;;6.22;1.15;;;;;;;;;;5016278;28;20052;-72
2021/05/25 04:23:14;;;;;;;4.25;1.05;;;;;;;;;;5018084;28;20465;-72
2021/05/25 04:25:41;;;;;;;4.55;1.10;;;;;;;;;;5022205;28;20460;-71
2021/05/25 04:28:07;;;;;;;2.97;0.90;;;;;;;;;;5024857;28;20040;-72
2021/05/25 04:30:34;;;;;;;5.10;0.70;;;;;;;;;;5023256;28;20073;-71
2021/05/25 04:33:01;;;;;;;2.97;0.70;;;;;;;;;;5023649;28;20055;-72
2021/05/25 04:35:27;;;;;;;4.32;0.82;;;;;;;;;;5025906;28;20064;-72
2021/05/25 04:37:56;;;;;;;3.33;0.70;;;;;;;;;;5024781;28;20060;-72
2021/05/25 04:40:22;;;;;;;3.58;0.70;;;;;;;;;;5025426;28;20397;-72
2021/05/25 04:42:49;;;;;;;2.00;0.60;;;;;;;;;;5024965;28;20389;-72
2021/05/25 04:45:15;;;;;;;4.63;0.90;;;;;;;;;;5025430;28;20053;-72
2021/05/25 04:47:41;;;;;;;3.83;0.60;;;;;;;;;;5021194;28;20124;-72
2021/05/25 04:50:08;;;;;;;2.90;0.93;;;;;;;;;;5023042;28;20048;-70
2021/05/25 04:52:35;;;;;;;4.03;0.80;;;;;;;;;;5028947;28;20062;-72
2021/05/25 04:55:01;;;;;;;2.53;0.70;;;;;;;;;;5028764;28;20065;-72
2021/05/25 04:57:29;;;;;;;3.90;0.80;;;;;;;;;;5028647;28;20099;-72
2021/05/25 04:59:55;;;;;;;4.03;0.80;;;;;;;;;;5028538;28;20053;-72
2021/05/25 05:02:22;;;;;;;4.82;0.80;;;;;;;;;;5026068;28;20041;-72
2021/05/25 05:04:48;;;;;;;3.97;0.90;;;;;;;;;;5023423;28;20375;-72
2021/05/25 05:07:14;;;;;;;2.88;0.70;;;;;;;;;;5021987;28;20073;-72
2021/05/25 05:09:41;;;;;;;3.22;0.98;;;;;;;;;;5026056;28;20061;-71
2021/05/25 05:12:07;;;;;;;2.50;1.05;;;;;;;;;;5027681;28;20049;-71
2021/05/25 05:14:33;;;;;;;5.15;1.33;;;;;;;;;;5028489;28;20038;-71
2021/05/25 05:17:00;;;;;;;5.93;1.35;;;;;;;;;;5028061;28;20045;-72
2021/05/25 05:19:26;;;;;;;3.17;0.73;;;;;;;;;;5027269;28;20076;-71
2021/05/25 05:21:52;;;;;;;5.50;1.10;;;;;;;;;;5010641;28;20063;-71
2021/05/25 05:24:19;;;;;;;6.18;0.98;;;;;;;;;;5027828;28;20417;-71
2021/05/25 05:26:45;;;;;;;4.30;0.80;;;;;;;;;;5026860;28;20064;-71
2021/05/25 05:29:11;;;;;;;6.63;1.23;;;;;;;;;;5027912;28;20045;-71
2021/05/25 05:31:38;;;;;;;1.35;0.60;;;;;;;;;;5027867;28;20069;-72
2021/05/25 05:34:04;;;;;;;5.30;1.08;;;;;;;;;;5025064;28;20070;-72
2021/05/25 05:36:30;;;;;;;2.60;1.05;;;;;;;;;;5016052;28;20080;-72
2021/05/25 05:38:57;;;;;;;6.47;1.30;;;;;;;;;;5002580;28;20486;-72
2021/05/25 05:41:23;;;;;;;3.80;1.13;;;;;;;;;;5018701;28;20054;-72
2021/05/25 05:43:50;;;;;;;4.28;0.90;;;;;;;;;;5021958;28;20118;-72
2021/05/25 05:46:16;;;;;;;3.15;0.90;;;;;;;;;;5032626;28;20156;-72
2021/05/25 05:48:43;;;;;;;2.33;0.85;;;;;;;;;;5033383;28;20072;-72
2021/05/25 05:51:09;;;;;;;2.03;0.70;;;;;;;;;;5033209;28;20579;-72
2021/05/25 05:53:35;;;;;;;2.25;0.80;;;;;;;;;;5032215;28;20038;-72
2021/05/25 05:56:01;;;;;;;3.13;1.02;;;;;;;;;;5032874;28;20580;-72
2021/05/25 05:58:28;;;;;;;2.40;1.00;;;;;;;;;;5033072;28;20090;-72
2021/05/25 06:00:54;;;;;;;3.97;0.70;;;;;;;;;;5032664;28;20045;-72
2021/05/25 06:03:21;;;;;;;5.22;1.33;;;;;;;;;;5033229;28;20053;-72
2021/05/25 06:05:47;;;;;;;3.08;0.90;;;;;;;;;;5032843;28;20042;-72
2021/05/25 06:08:15;;;;;;;4.07;1.20;;;;;;;;;;5032983;28;20052;-72
2021/05/25 06:10:48;;;;;;;4.93;1.10;;;;;;;;;;5033041;28;20041;-72
2021/05/25 06:13:15;;;;;;;5.30;0.98;;;;;;;;;;5032968;28;20120;-72
2021/05/25 06:15:41;;;;;;;5.25;1.10;;;;;;;;;;5032084;28;20060;-72
2021/05/25 06:18:07;;;;;;;3.60;0.70;;;;;;;;;;5032691;28;20485;-72
2021/05/25 06:20:34;;;;;;;2.38;0.85;;;;;;;;;;5032805;28;20045;-72
2021/05/25 06:23:00;;;;;;;4.13;1.20;;;;;;;;;;5031865;28;20052;-72
2021/05/25 06:25:27;;;;;;;4.65;0.95;;;;;;;;;;5032828;28;20053;-72
2021/05/25 06:27:54;;;;;;;4.85;1.00;;;;;;;;;;5032698;28;20058;-72
2021/05/25 06:30:20;;;;;;;2.80;0.70;;;;;;;;;;5032079;28;20081;-72
2021/05/25 06:32:47;;;;;;;2.25;0.60;;;;;;;;;;5032335;28;20473;-73
2021/05/25 06:35:13;;;;;;;7.97;0.77;;;;;;;;;;5032780;28;20045;-72
2021/05/25 06:37:39;;;;;;;1.52;0.60;;;;;;;;;;5031878;28;20132;-73
2021/05/25 06:40:06;;;;;;;3.47;0.90;;;;;;;;;;5032441;28;20100;-72
2021/05/25 06:42:33;;;;;;;3.33;0.90;;;;;;;;;;5031806;28;20045;-72
2021/05/25 06:44:59;;;;;;;4.13;0.90;;;;;;;;;;5032372;28;20053;-72
2021/05/25 06:47:25;;;;;;;3.17;0.88;;;;;;;;;;5031614;28;20482;-72
2021/05/25 06:49:52;;;;;;;2.53;0.60;;;;;;;;;;5031414;28;20053;-72
2021/05/25 06:52:18;;;;;;;1.10;0.60;;;;;;;;;;5032531;28;20051;-72
2021/05/25 06:54:45;;;;;;;2.08;0.50;;;;;;;;;;5031895;28;20057;-72
2021/05/25 06:57:11;;;;;;;1.58;0.55;;;;;;;;;;5031194;28;20057;-72
2021/05/25 06:59:38;;;;;;;1.50;0.43;;;;;;;;;;5032136;28;20045;-72
2021/05/25 07:02:05;;;;;;;2.63;0.82;;;;;;;;;;5031634;28;20037;-72
2021/05/25 07:04:31;;;;;;;3.38;0.60;;;;;;;;;;5031393;28;20370;-72
2021/05/25 07:06:57;;;;;;;1.55;0.63;;;;;;;;;;5032087;28;20086;-72
2021/05/25 07:09:24;;;;;;;3.05;0.85;;;;;;;;;;5031652;28;20068;-72
2021/05/25 07:11:50;;;;;;;3.38;1.35;;;;;;;;;;5031029;28;20515;-72
2021/05/25 07:14:16;;;;;;;2.88;0.70;;;;;;;;;;5031704;28;20054;-72
2021/05/25 07:16:43;;;;;;;7.97;0.90;;;;;;;;;;5031471;28;20052;-72
2021/05/25 07:19:09;;;;;;;3.70;1.10;;;;;;;;;;5030909;28;20037;-72
2021/05/25 07:21:35;;;;;;;2.10;0.90;;;;;;;;;;5031709;28;20041;-72
2021/05/25 07:24:02;;;;;;;3.72;1.00;;;;;;;;;;5031501;28;20045;-72
2021/05/25 07:26:28;;;;;;;3.90;1.23;;;;;;;;;;5030653;28;20037;-72
2021/05/25 07:28:54;;;;;;;5.80;0.73;;;;;;;;;;5030021;28;20041;-72
2021/05/25 07:31:20;;;;;;;2.67;1.00;;;;;;;;;;5031017;28;20140;-72
2021/05/25 07:33:47;;;;;;;5.05;1.33;;;;;;;;;;5030446;28;20509;-72
2021/05/25 07:36:13;;;;;;;2.40;0.90;;;;;;;;;;5031269;28;20467;-72
2021/05/25 07:38:39;;;;;;;2.78;1.02;;;;;;;;;;5030506;28;20049;-72
2021/05/25 07:41:06;;;;;;;4.72;1.10;;;;;;;;;;5031183;28;20057;-72
2021/05/25 07:43:33;;;;;;;3.55;1.17;;;;;;;;;;5030989;28;20037;-72
2021/05/25 07:46:00;;;;;;;6.22;1.13;;;;;;;;;;5030372;28;20053;-73
2021/05/25 07:48:27;;;;;;;3.53;1.13;;;;;;;;;;5023535;28;20054;-72
2021/05/25 07:50:53;;;;;;;3.65;0.93;;;;;;;;;;5021207;28;20072;-72
2021/05/25 07:53:19;;;;;;;3.33;1.00;;;;;;;;;;5024854;28;20140;-73
2021/05/25 07:55:46;;;;;;;3.88;1.20;;;;;;;;;;5021554;28;20085;-72
2021/05/25 07:58:12;;;;;;;4.45;1.15;;;;;;;;;;5013045;28;20555;-72
2021/05/25 08:00:38;;;;;;;3.22;1.20;;;;;;;;;;5016090;28;20038;-73
2021/05/25 08:03:05;;;;;;;5.22;1.75;;;;;;;;;;5018767;28;20092;-72
2021/05/25 08:05:32;;;;;;;4.65;1.17;;;;;;;;;;5014014;28;20443;-72
2021/05/25 08:08:01;;;;;;;5.13;0.93;;;;;;;;;;5012198;28;20056;-72
2021/05/25 08:10:27;;;;;;;2.33;0.93;;;;;;;;;;5015199;28;20346;-72
2021/05/25 08:12:53;;;;;;;4.72;1.20;;;;;;;;;;5013364;28;20119;-72
2021/05/25 08:15:21;;;;;;;3.42;0.90;;;;;;;;;;5014068;28;20069;-72
2021/05/25 08:17:52;;;;;;;5.60;0.90;;;;;;;;;;5013979;28;20493;-72
2021/05/25 08:20:19;;;;;;;3.13;0.90;;;;;;;;;;5010337;28;20362;-72
2021/05/25 08:22:47;;;;;;;2.00;0.75;;;;;;;;;;5015231;28;20064;-72
2021/05/25 08:25:15;;;;;;;2.53;1.00;;;;;;;;;;5013436;28;20034;-72
2021/05/25 08:27:42;;;;;;;4.63;0.88;;;;;;;;;;5014678;28;20076;-72
2021/05/25 08:30:09;;;;;;;3.33;0.90;;;;;;;;;;5044604;28;20080;-72
2021/05/25 08:32:36;;;;;;;3.45;0.80;;;;;;;;;;5029959;28;20474;-72
2021/05/25 08:35:03;;;;;;;2.90;1.00;;;;;;;;;;5029216;28;20045;-72
2021/05/25 08:37:29;;;;;;;4.30;1.20;;;;;;;;;;5029690;28;20053;-72
2021/05/25 08:39:55;;;;;;;3.25;1.15;;;;;;;;;;5029193;28;20187;-72
2021/05/25 08:42:22;;;;;;;1.63;0.80;;;;;;;;;;5029521;28;20151;-72
2021/05/25 08:44:48;;;;;;;3.65;1.00;;;;;;;;;;5044756;28;20400;-72
2021/05/25 08:47:15;;;;;;;3.10;1.00;;;;;;;;;;5030094;28;20037;-72
2021/05/25 08:49:41;;;;;;;3.42;1.20;;;;;;;;;;5028461;28;20401;-72
2021/05/25 08:52:08;;;;;;;6.13;1.20;;;;;;;;;;5018740;28;20050;-72
2021/05/25 08:54:38;;;;;;;6.50;1.75;;;;;;;;;;5016962;28;20160;-71
2021/05/25 08:57:04;;;;;;;7.38;1.20;;;;;;;;;;5011652;28;20053;-73
2021/05/25 08:59:30;;;;;;;4.95;1.88;;;;;;;;;;5016820;28;20088;-71
2021/05/25 09:01:57;;;;;;;3.00;1.20;;;;;;;;;;5011969;28;20413;-75
2021/05/25 09:04:23;;;;;;;6.30;1.50;;;;;;;;;;5014342;28;20090;-72
2021/05/25 09:06:50;;;;;;;3.85;1.23;;;;;;;;;;5017929;28;20113;-71
2021/05/25 09:09:18;;;;;;;6.22;1.55;;;;;;;;;;5013223;28;20175;-71
2021/05/25 09:11:59;;;;;;;3.97;1.25;;;;;;;;;;5016313;28;20500;-71
2021/05/25 09:14:26;;;;;;;5.70;1.60;;;;;;;;;;5019966;28;20049;-72
2021/05/25 09:17:12;;;;;;;4.88;1.50;;;;;;;;;;5032121;28;20505;-71
2021/05/25 09:19:46;;;;;;;4.10;1.40;;;;;;;;;;5033398;28;20044;-71
2021/05/25 09:22:26;;;;;;;3.20;1.30;;;;;;;;;;5032697;28;20043;-71
2021/05/25 09:24:53;;;;;;;4.90;1.50;;;;;;;;;;5026478;28;20119;-72
2021/05/25 09:27:31;;;;;;;4.45;1.60;;;;;;;;;;5033340;28;20053;-72
2021/05/25 09:30:14;;;;;;;4.38;1.80;;;;;;;;;;5033291;28;20053;-72
2021/05/25 09:32:45;;;;;;;5.30;1.83;;;;;;;;;;5032532;28;20439;-71
2021/05/25 09:35:12;;;;;;;4.38;1.48;;;;;;;;;;5033317;28;20176;-72
2021/05/25 09:37:45;;;;;;;7.25;1.80;;;;;;;;;;5033430;28;20037;-71
2021/05/25 09:40:11;;;;;;;3.92;1.50;;;;;;;;;;5032610;28;20045;-71
2021/05/25 09:42:38;;;;;;;4.90;1.83;;;;;;;;;;5032951;28;20045;-72
2021/05/25 09:45:09;;;;;;;9.07;2.40;;;;;;;;;;5033207;28;20087;-72
2021/05/25 09:47:36;;;;;;;4.03;2.10;;;;;;;;;;5032857;28;20049;-71
2021/05/25 09:50:03;;;;;;;6.13;1.73;;;;;;;;;;5033253;28;20198;-71
2021/05/25 09:52:29;;;;;;;5.68;2.13;;;;;;;;;;5032408;28;20053;-71
2021/05/25 09:55:07;;;;;;;5.07;1.65;;;;;;;;;;5032316;28;20072;-72
2021/05/25 09:57:41;;;;;;;6.22;2.10;;;;;;;;;;5032412;28;20057;-72
2021/05/25 10:00:23;;;;;;;3.35;1.65;;;;;;;;;;5031755;28;20099;-72
2021/05/25 10:03:10;;;;;;;8.05;1.85;;;;;;;;;;5031915;28;20049;-71
2021/05/25 10:05:37;;;;;;;4.47;1.83;;;;;;;;;;5032099;28;20037;-71
2021/05/25 10:08:04;;;;;;;6.03;1.88;;;;;;;;;;5031757;28;20041;-73
2021/05/25 10:10:32;;;;;;;9.40;3.05;;;;;;;;;;5032082;28;20041;-74
2021/05/25 10:12:58;;;;;;;5.32;1.73;;;;;;;;;;5032154;28;20508;-74
2021/05/25 10:15:26;;;;;;;5.97;1.98;;;;;;;;;;5031516;28;20037;-74
2021/05/25 10:20:35;;;;;;;5.70;1.92;;;;;;;;;;5030369;28;20445;-75
2021/05/25 10:23:01;;;;;;;5.88;2.20;;;;;;;;;;5014072;28;20052;-77
2021/05/25 10:25:31;;;;;;;19.30;3.00;;;;;;;;;;5032036;28;20438;-75
2021/05/25 10:27:58;;;;;;;5.70;2.42;;;;;;;;;;5030886;28;20048;-76
2021/05/25 10:30:24;;;;;;;6.78;2.50;;;;;;;;;;5031813;28;20434;-76
2021/05/25 10:33:06;;;;;;;6.18;2.17;;;;;;;;;;5032045;28;20045;-76
2021/05/25 10:35:51;;;;;;;7.40;2.55;;;;;;;;;;5031387;28;20048;-75
2021/05/25 10:38:18;;;;;;;5.00;1.98;;;;;;;;;;5031930;28;20457;-76
2021/05/25 10:40:46;;;;;;;6.07;2.20;;;;;;;;;;5031533;28;20037;-74
2021/05/25 10:43:38;;;;;;;5.70;2.42;;;;;;;;;;5031197;28;20045;-73
2021/05/25 10:46:11;;;;;;;9.07;2.20;;;;;;;;;;5030779;28;20128;-72
2021/05/25 10:48:55;;;;;;;6.40;1.98;;;;;;;;;;5013094;28;20473;-72
2021/05/25 10:51:21;;;;;;;5.25;2.25;;;;;;;;;;5032435;28;20045;-72
2021/05/25 10:54:07;;;;;;;9.93;2.90;;;;;;;;;;5018548;28;20132;-72
2021/05/25 10:56:37;;;;;;;5.95;2.53;;;;;;;;;;5010576;28;20061;-72
2021/05/25 10:59:06;;;;;;;5.68;2.08;;;;;;;;;;5032300;28;20069;-72
2021/05/25 11:01:32;;;;;;;4.75;2.30;;;;;;;;;;5032196;28;20052;-73
2021/05/25 11:04:07;;;;;;;6.97;3.03;;;;;;;;;;5031220;28;20048;-73
2021/05/25 11:06:33;;;;;;;7.28;2.45;;;;;;;;;;5032232;28;20136;-72
2021/05/25 11:09:23;;;;;;;7.40;2.67;;;;;;;;;;5032228;28;20037;-73
2021/05/25 11:12:09;;;;;;;9.27;3.58;;;;;;;;;;5031289;28;20051;-72
2021/05/25 11:14:35;;;;;;;7.40;2.60;;;;;;;;;;5014110;28;20144;-73
2021/05/25 11:17:20;;;;;;;7.85;2.72;;;;;;;;;;5031319;28;20045;-72
2021/05/25 11:19:57;;;;;;;6.15;2.20;;;;;;;;;;5032071;28;20053;-72
2021/05/25 11:22:38;;;;;;;8.20;2.55;;;;;;;;;;5031871;28;20092;-72
2021/05/25 11:25:07;;;;;;;8.05;2.40;;;;;;;;;;5031239;28;20048;-72
2021/05/25 11:27:36;;;;;;;8.45;2.80;;;;;;;;;;5010391;28;20200;-72
2021/05/25 11:30:06;;;;;;;7.38;2.30;;;;;;;;;;5018420;28;20038;-72
2021/05/25 11:32:38;;;;;;;4.68;2.30;;;;;;;;;;5030895;28;20064;-72
2021/05/25 11:35:05;;;;;;;6.15;1.80;;;;;;;;;;5031219;28;20057;-72
2021/05/25 11:37:33;;;;;;;5.45;1.75;;;;;;;;;;5031355;28;20350;-72
2021/05/25 11:39:59;;;;;;;7.50;2.28;;;;;;;;;;5030675;28;20042;-72
2021/05/25 11:42:27;;;;;;;7.38;2.22;;;;;;;;;;5031587;28;20055;-72
2021/05/25 11:44:54;;;;;;;7.32;2.60;;;;;;;;;;5030323;28;20148;-72
2021/05/25 11:47:20;;;;;;;8.80;1.73;;;;;;;;;;5031039;28;20323;-72
2021/05/25 11:49:47;;;;;;;13.20;2.50;;;;;;;;;;5031379;28;20049;-72
2021/05/25 11:52:21;;;;;;;9.60;2.60;;;;;;;;;;5030127;28;20544;-72
2021/05/25 11:54:47;;;;;;;10.75;2.80;;;;;;;;;;5030431;28;20048;-72
2021/05/25 11:57:29;;;;;;;8.50;2.25;;;;;;;;;;5030747;28;20141;-72
2021/05/25 11:59:56;;;;;;;6.25;2.15;;;;;;;;;;5030140;28;20493;-73
2021/05/25 12:02:24;;;;;;;5.25;1.85;;;;;;;;;;5030577;28;20095;-73
2021/05/25 12:04:50;;;;;;;7.25;2.30;;;;;;;;;;5030692;28;20052;-72
2021/05/25 12:07:21;;;;;;;4.68;1.73;;;;;;;;;;5029971;28;20041;-72
2021/05/25 12:09:52;;;;;;;4.85;2.30;;;;;;;;;;5030816;28;20042;-72
2021/05/25 12:12:23;;;;;;;5.72;2.25;;;;;;;;;;5030731;28;20155;-72
2021/05/25 12:14:49;;;;;;;6.80;2.50;;;;;;;;;;5029716;28;20493;-72
2021/05/25 12:17:20;;;;;;;9.38;2.58;;;;;;;;;;5030589;28;20060;-72
2021/05/25 12:19:54;;;;;;;7.65;2.45;;;;;;;;;;5016540;28;20061;-72
2021/05/25 12:22:31;;;;;;;5.28;2.00;;;;;;;;;;5030114;28;20148;-71
2021/05/25 12:25:12;;;;;;;7.22;2.60;;;;;;;;;;5030303;28;20045;-73
2021/05/25 12:27:39;;;;;;;7.35;2.55;;;;;;;;;;5007787;28;20478;-73
2021/05/25 12:30:06;;;;;;;5.25;2.15;;;;;;;;;;5030021;28;20053;-72
2021/05/25 12:32:32;;;;;;;5.22;1.58;;;;;;;;;;5030557;28;20075;-72
2021/05/25 12:35:00;;;;;;;3.80;1.70;;;;;;;;;;5029337;28;20075;-73
2021/05/25 12:37:26;;;;;;;9.38;1.80;;;;;;;;;;5030181;28;20469;-73
2021/05/25 12:40:07;;;;;;;6.20;2.00;;;;;;;;;;5030294;28;20037;-74
2021/05/25 12:42:35;;;;;;;8.50;2.75;;;;;;;;;;5029412;28;20135;-74
2021/05/25 12:45:06;;;;;;;8.63;2.30;;;;;;;;;;5029759;28;20512;-73
2021/05/25 12:47:49;;;;;;;8.98;2.55;;;;;;;;;;5030311;28;20125;-73
2021/05/25 12:50:15;;;;;;;8.63;2.70;;;;;;;;;;5029501;28;20038;-73
2021/05/25 12:52:42;;;;;;;8.73;2.95;;;;;;;;;;5030309;28;20052;-73
2021/05/25 12:55:11;;;;;;;7.00;2.28;;;;;;;;;;5029191;28;20404;-73
2021/05/25 12:57:45;;;;;;;8.27;2.22;;;;;;;;;;5030131;28;20050;-73
2021/05/25 13:00:12;;;;;;;8.73;2.33;;;;;;;;;;5030066;28;20041;-73
2021/05/25 13:02:40;;;;;;;10.15;2.72;;;;;;;;;;5029395;28;20034;-73
2021/05/25 13:05:13;;;;;;;11.50;2.33;;;;;;;;;;5030201;28;20067;-73
2021/05/25 13:07:50;;;;;;;8.93;2.78;;;;;;;;;;5030002;28;20041;-73
2021/05/25 13:10:25;;;;;;;6.80;2.50;;;;;;;;;;5029547;28;20063;-73
2021/05/25 13:12:51;;;;;;;9.60;2.95;;;;;;;;;;5029915;28;20044;-73
2021/05/25 13:15:18;;;;;;;8.43;2.30;;;;;;;;;;5029960;28;20069;-73
2021/05/25 13:17:50;;;;;;;13.38;2.15;;;;;;;;;;5029539;28;20077;-87
2021/05/25 13:20:22;;;;;;;10.05;2.88;;;;;;;;;;5030680;28;20045;-86
2021/05/25 13:22:48;;;;;;;8.18;2.40;;;;;;;;;;5031105;28;20068;-86
2021/05/25 13:25:16;;;;;;;7.78;2.72;;;;;;;;;;5030279;28;20405;-87
2021/05/25 13:27:50;;;;;;;7.00;2.10;;;;;;;;;;5031224;28;20557;-73
2021/05/25 13:30:17;;;;;;;9.65;2.25;;;;;;;;;;5028385;28;20099;-90
2021/05/25 13:32:44;;;;;;;8.48;2.15;;;;;;;;;;5030872;28;20436;-83
2021/05/25 13:35:11;;;;;;;11.85;2.25;;;;;;;;;;5030226;28;20046;-73
2021/05/25 13:37:39;;;;;;;9.88;1.90;;;;;;;;;;5028968;28;20054;-73
2021/05/25 13:40:07;;;;;;;8.02;2.25;;;;;;;;;;5029993;28;20042;-73
2021/05/25 13:42:34;;;;;;;9.63;1.88;;;;;;;;;;5029070;28;20050;-73
2021/05/25 13:45:01;;;;;;;9.63;2.22;;;;;;;;;;5018217;28;20041;-73
2021/05/25 13:47:29;;;;;;;6.40;1.65;;;;;;;;;;5013835;28;20044;-73
2021/05/25 13:49:55;;;;;;;6.45;1.50;;;;;;;;;;5015466;28;20566;-73
2021/05/25 13:52:21;;;;;;;7.93;1.98;;;;;;;;;;5011011;28;20077;-72
2021/05/25 13:54:49;;;;;;;5.35;1.60;;;;;;;;;;5019857;28;20415;-72
2021/05/25 13:57:18;;;;;;;8.75;2.20;;;;;;;;;;5019177;28;20115;-72
2021/05/25 14:02:12;;;;;;;8.20;1.95;;;;;;;;;;5015495;28;20053;-72
2021/05/25 14:04:39;;;;;;;9.57;1.70;;;;;;;;;;5017381;28;21884;-73
2021/05/25 14:07:10;;;;;;;7.13;1.95;;;;;;;;;;5026270;28;20124;-72
2021/05/25 14:09:37;;;;;;;7.43;1.67;;;;;;;;;;5024050;28;20444;-72
2021/05/25 14:12:03;;;;;;;5.30;1.33;;;;;;;;;;5033985;28;20118;-72
2021/05/25 14:14:29;;;;;;;5.97;1.75;;;;;;;;;;5025727;28;20107;-72
2021/05/25 14:16:56;;;;;;;8.50;1.80;;;;;;;;;;5028022;28;20053;-72
2021/05/25 14:19:22;;;;;;;7.47;1.98;;;;;;;;;;5026185;28;20454;-72
2021/05/25 14:21:48;;;;;;;8.55;1.63;;;;;;;;;;5021078;28;20057;-78
2021/05/25 14:24:15;;;;;;;8.20;1.85;;;;;;;;;;5008653;28;20494;-86
2021/05/25 14:26:41;;;;;;;6.72;1.55;;;;;;;;;;5022087;28;20049;-72
2021/05/25 14:29:09;;;;;;;7.15;2.10;;;;;;;;;;5019996;28;20504;-72
2021/05/25 14:31:36;;;;;;;8.98;1.95;;;;;;;;;;5008472;28;20059;-72
2021/05/25 14:34:03;;;;;;;4.20;1.35;;;;;;;;;;5025343;28;20041;-72
2021/05/25 14:36:29;;;;;;;7.05;1.77;;;;;;;;;;5021720;28;20054;-72
2021/05/25 14:38:55;;;;;;;5.70;1.17;;;;;;;;;;5023340;28;20132;-72
2021/05/25 14:41:22;;;;;;;7.70;1.65;;;;;;;;;;5025233;28;20145;-72
2021/05/25 14:43:48;;;;;;;7.25;1.20;;;;;;;;;;5023201;28;20045;-72
2021/05/25 14:46:14;;;;;;;5.90;1.40;;;;;;;;;;5025004;28;20045;-72
2021/05/25 14:48:43;;;;;;;7.07;1.73;;;;;;;;;;5025403;28;20120;-73
2021/05/25 14:51:09;;;;;;;9.63;1.67;;;;;;;;;;5019555;28;20049;-73
2021/05/25 14:53:42;;;;;;;8.38;2.30;;;;;;;;;;5014759;28;20160;-73